Time;durP1;ratioP1;P1;durP2;ratioP2;P2;SDS_P1;SDS_P2;PMS_P1;PMS_P2;Temp;Humidity;BMP_temperature;BMP_pressure;BME280_temperature;BME280_humidity;BME280_pressure;Samples;Min_cycle;Max_cycle;Signal;HPM_P1;HPM_P2
2023/02/16 00:01:49;;;;;;;;;;;5.30;1.00;;;;;;6216218;23;19904;-81
2023/02/16 00:04:18;;;;;;;;;;;5.30;1.00;;;;;;6216843;23;20327;-81
2023/02/16 00:06:43;;;;;;;;;;;5.30;1.00;;;;;;6216498;23;19904;-82
2023/02/16 00:09:09;;;;;;;;;;;5.30;1.00;;;;;;6216644;23;19953;-81
2023/02/16 00:14:24;;;;;;;;;;;5.20;1.00;;;;;;6216906;23;19958;-81
2023/02/16 00:16:58;;;;;;;;;;;5.20;1.00;;;;;;6215102;23;19908;-81
2023/02/16 00:19:23;;;;;;;;;;;5.10;1.00;;;;;;6216500;23;19911;-80
2023/02/16 00:21:50;;;;;;;;;;;5.10;1.00;;;;;;6216243;23;19908;-81
2023/02/16 00:24:15;;;;;;;;;;;5.00;1.00;;;;;;6216629;23;19986;-81
2023/02/16 00:26:41;;;;;;;;;;;5.00;1.00;;;;;;6216536;23;19911;-80
2023/02/16 00:29:09;;;;;;;;;;;5.00;1.00;;;;;;6216372;23;19911;-80
2023/02/16 00:31:35;;;;;;;;;;;5.00;1.00;;;;;;6216047;23;19914;-80
2023/02/16 00:34:14;;;;;;;;;;;4.90;1.00;;;;;;6216321;23;19978;-81
2023/02/16 00:36:40;;;;;;;;;;;5.00;1.00;;;;;;6216383;23;19982;-80
2023/02/16 00:39:05;;;;;;;;;;;4.90;1.00;;;;;;6216458;23;19911;-81
2023/02/16 00:41:49;;;;;;;;;;;4.90;1.00;;;;;;6215879;23;20217;-81
2023/02/16 00:44:20;;;;;;;;;;;4.90;1.00;;;;;;6216179;23;19904;-81
2023/02/16 00:46:46;;;;;;;;;;;4.90;1.00;;;;;;6216344;23;19904;-80
2023/02/16 00:49:15;;;;;;;;;;;4.90;1.00;;;;;;6216304;23;19904;-81
2023/02/16 00:51:41;;;;;;;;;;;4.80;1.00;;;;;;6216128;23;20313;-80
2023/02/16 00:54:06;;;;;;;;;;;4.80;1.00;;;;;;6239704;23;19911;-80
2023/02/16 00:56:32;;;;;;;;;;;4.80;1.00;;;;;;6137550;23;20308;-80
2023/02/16 00:58:59;;;;;;;;;;;4.80;1.00;;;;;;6092801;23;19909;-81
2023/02/16 01:01:27;;;;;;;;;;;4.80;1.00;;;;;;6092542;23;19958;-80
2023/02/16 01:03:53;;;;;;;;;;;4.70;1.00;;;;;;6091870;23;20230;-81
2023/02/16 01:11:56;;;;;;;;;;;4.60;1.00;;;;;;6092769;23;19915;-80
2023/02/16 01:14:21;;;;;;;;;;;4.60;1.00;;;;;;6093122;23;19941;-81
2023/02/16 01:16:47;;;;;;;;;;;4.70;1.00;;;;;;6092665;23;19905;-80
2023/02/16 01:19:12;;;;;;;;;;;4.60;1.00;;;;;;6092879;23;19984;-80
2023/02/16 01:21:38;;;;;;;;;;;4.60;1.00;;;;;;6115164;23;19909;-81
2023/02/16 01:24:04;;;;;;;;;;;4.50;1.00;;;;;;6115755;23;20241;-81
2023/02/16 01:26:31;;;;;;;;;;;4.50;1.00;;;;;;6091078;23;19909;-80
2023/02/16 01:28:56;;;;;;;;;;;4.50;1.00;;;;;;6092725;23;19952;-80
2023/02/16 01:31:22;;;;;;;;;;;4.50;1.00;;;;;;6093313;23;19906;-82
2023/02/16 01:33:47;;;;;;;;;;;4.40;1.00;;;;;;6095006;23;20323;-81
2023/02/16 01:36:36;;;;;;;;;;;4.40;1.00;;;;;;6094709;23;19905;-81
2023/02/16 01:39:01;;;;;;;;;;;4.40;1.00;;;;;;6081744;23;20285;-81
2023/02/16 01:41:36;;;;;;;;;;;4.40;1.00;;;;;;6095148;23;19956;-82
2023/02/16 01:44:03;;;;;;;;;;;4.40;1.00;;;;;;6093680;23;19952;-80
2023/02/16 01:46:35;;;;;;;;;;;4.40;1.00;;;;;;6096480;23;19909;-82
2023/02/16 01:49:00;;;;;;;;;;;4.30;1.00;;;;;;6094398;23;19906;-82
2023/02/16 01:51:34;;;;;;;;;;;4.30;1.00;;;;;;6092902;23;19955;-81
2023/02/16 01:54:18;;;;;;;;;;;4.30;1.00;;;;;;6093526;23;19909;-81
2023/02/16 01:56:53;;;;;;;;;;;4.30;1.00;;;;;;6093438;23;19913;-81
2023/02/16 01:59:30;;;;;;;;;;;4.30;1.00;;;;;;6093532;23;19932;-82
2023/02/16 02:02:00;;;;;;;;;;;4.30;1.00;;;;;;6095414;23;19909;-82
2023/02/16 02:07:16;;;;;;;;;;;4.20;1.00;;;;;;6095108;23;20391;-82
2023/02/16 02:09:56;;;;;;;;;;;4.20;1.00;;;;;;6094489;23;19905;-81
2023/02/16 02:12:33;;;;;;;;;;;4.20;1.00;;;;;;6094001;23;19944;-81
2023/02/16 02:14:59;;;;;;;;;;;4.10;1.00;;;;;;6094063;23;20260;-81
2023/02/16 02:17:24;;;;;;;;;;;4.10;1.00;;;;;;6094376;23;19905;-80
2023/02/16 02:19:50;;;;;;;;;;;4.10;4.30;;;;;;6093034;23;19910;-80
2023/02/16 02:25:12;;;;;;;;;;;4.10;3.30;;;;;;6092525;23;20319;-80
2023/02/16 02:27:40;;;;;;;;;;;4.10;4.80;;;;;;6092766;23;19905;-80
2023/02/16 02:30:24;;;;;;;;;;;4.00;4.20;;;;;;6091118;23;19905;-80
2023/02/16 02:33:01;;;;;;;;;;;4.10;6.10;;;;;;6092204;23;19909;-82
2023/02/16 02:35:33;;;;;;;;;;;4.00;3.00;;;;;;6115428;23;19905;-80
2023/02/16 02:38:15;;;;;;;;;;;4.10;4.50;;;;;;6091061;23;19909;-80
2023/02/16 02:41:00;;;;;;;;;;;4.00;5.70;;;;;;6092111;23;19909;-80
2023/02/16 02:43:31;;;;;;;;;;;4.00;8.30;;;;;;6092227;23;19906;-80
2023/02/16 02:46:02;;;;;;;;;;;4.00;6.60;;;;;;6092428;23;20341;-80
2023/02/16 02:48:31;;;;;;;;;;;4.00;3.90;;;;;;6092589;23;19967;-80
2023/02/16 02:53:48;;;;;;;;;;;4.00;1.00;;;;;;6093065;23;19913;-80
2023/02/16 03:01:49;;;;;;;;;;;4.00;1.00;;;;;;6091958;23;20386;-80
2023/02/16 03:04:17;;;;;;;;;;;4.00;1.00;;;;;;6092436;23;19912;-80
2023/02/16 03:06:44;;;;;;;;;;;4.00;1.00;;;;;;6092603;23;20360;-80
2023/02/16 03:09:11;;;;;;;;;;;4.00;1.00;;;;;;6092240;23;19932;-80
2023/02/16 03:14:26;;;;;;;;;;;4.00;1.00;;;;;;6092542;23;19959;-82
2023/02/16 03:30:41;;;;;;;;;;;3.80;1.00;;;;;;6093210;23;20249;-80
2023/02/16 03:33:06;;;;;;;;;;;3.80;1.00;;;;;;6093082;23;19906;-80
2023/02/16 03:35:32;;;;;;;;;;;3.80;1.00;;;;;;6093755;23;19925;-80
2023/02/16 03:37:58;;;;;;;;;;;3.80;1.00;;;;;;6093484;23;20218;-81
2023/02/16 03:40:29;;;;;;;;;;;3.80;1.00;;;;;;6093148;23;19940;-81
2023/02/16 03:42:59;;;;;;;;;;;3.80;2.40;;;;;;6093245;23;19905;-80
2023/02/16 03:45:25;;;;;;;;;;;3.70;5.50;;;;;;6091800;23;20287;-80
2023/02/16 03:47:51;;;;;;;;;;;3.70;8.70;;;;;;6093165;23;19912;-81
2023/02/16 03:50:16;;;;;;;;;;;3.70;11.70;;;;;;6093300;23;19906;-80
2023/02/16 03:52:42;;;;;;;;;;;3.70;14.00;;;;;;6093786;23;19905;-80
2023/02/16 03:55:07;;;;;;;;;;;3.70;16.20;;;;;;6093890;23;19906;-80
2023/02/16 03:57:33;;;;;;;;;;;3.70;16.20;;;;;;6093094;23;19905;-80
2023/02/16 03:59:58;;;;;;;;;;;3.70;16.40;;;;;;6091397;23;20245;-80
2023/02/16 04:02:24;;;;;;;;;;;3.70;15.00;;;;;;6093345;23;19940;-80
2023/02/16 04:04:50;;;;;;;;;;;3.60;12.90;;;;;;6092586;23;19909;-81
2023/02/16 04:07:15;;;;;;;;;;;3.60;12.30;;;;;;6094260;23;19912;-80
2023/02/16 04:09:41;;;;;;;;;;;3.60;9.50;;;;;;6092332;23;20320;-81
2023/02/16 04:14:50;;;;;;;;;;;3.60;5.40;;;;;;6094813;23;20392;-81
2023/02/16 04:17:15;;;;;;;;;;;3.50;7.90;;;;;;6095632;23;19905;-81
2023/02/16 04:19:41;;;;;;;;;;;3.50;11.30;;;;;;6116910;23;19906;-82
2023/02/16 04:22:06;;;;;;;;;;;3.50;10.70;;;;;;6093966;23;19912;-80
2023/02/16 04:24:32;;;;;;;;;;;3.50;8.70;;;;;;6094277;23;19906;-80
2023/02/16 04:26:57;;;;;;;;;;;3.50;14.30;;;;;;6093397;23;19980;-80
2023/02/16 04:29:23;;;;;;;;;;;3.50;9.10;;;;;;6095017;23;19912;-81
2023/02/16 04:31:48;;;;;;;;;;;3.50;7.80;;;;;;6092360;23;20333;-81
2023/02/16 04:34:14;;;;;;;;;;;3.50;8.70;;;;;;6094073;23;20240;-80
2023/02/16 04:36:39;;;;;;;;;;;3.50;13.70;;;;;;6093982;23;19916;-80
2023/02/16 04:39:05;;;;;;;;;;;3.50;17.00;;;;;;6094147;23;19905;-82
2023/02/16 04:41:30;;;;;;;;;;;3.50;18.20;;;;;;6092304;23;19909;-81
2023/02/16 04:43:56;;;;;;;;;;;3.50;22.50;;;;;;6096122;23;19912;-80
2023/02/16 04:46:22;;;;;;;;;;;3.50;23.40;;;;;;6095825;23;19929;-81
2023/02/16 04:48:47;;;;;;;;;;;3.50;21.70;;;;;;6094420;23;20222;-80
2023/02/16 04:51:13;;;;;;;;;;;3.50;24.00;;;;;;6094735;23;20330;-80
2023/02/16 04:53:38;;;;;;;;;;;3.50;25.60;;;;;;6092254;23;19905;-80
2023/02/16 04:56:04;;;;;;;;;;;3.50;25.60;;;;;;6094399;23;19913;-81
2023/02/16 04:58:29;;;;;;;;;;;3.40;26.60;;;;;;6093848;23;20341;-82
2023/02/16 05:00:55;;;;;;;;;;;3.50;28.00;;;;;;6093729;23;19913;-82
2023/02/16 05:03:20;;;;;;;;;;;3.40;30.10;;;;;;6094082;23;19913;-81
2023/02/16 05:05:46;;;;;;;;;;;3.40;30.50;;;;;;6092754;23;19963;-82
2023/02/16 05:08:11;;;;;;;;;;;3.40;32.30;;;;;;6094185;23;19988;-81
2023/02/16 05:10:36;;;;;;;;;;;3.40;29.40;;;;;;6093859;23;19905;-80
2023/02/16 05:15:46;;;;;;;;;;;3.40;29.70;;;;;;6093817;23;19976;-81
2023/02/16 05:18:11;;;;;;;;;;;3.40;32.20;;;;;;6093922;23;19905;-80
2023/02/16 05:23:21;;;;;;;;;;;3.40;31.00;;;;;;6093871;23;19951;-80
2023/02/16 05:25:47;;;;;;;;;;;3.40;33.00;;;;;;6093811;23;19906;-81
2023/02/16 05:28:12;;;;;;;;;;;3.40;32.10;;;;;;6092534;23;19905;-81
2023/02/16 05:30:37;;;;;;;;;;;3.40;34.60;;;;;;6092598;23;19984;-80
2023/02/16 05:33:03;;;;;;;;;;;3.40;37.00;;;;;;6093956;23;19905;-81
2023/02/16 05:35:28;;;;;;;;;;;3.40;33.90;;;;;;6093937;23;20023;-81
2023/02/16 05:37:54;;;;;;;;;;;3.40;36.60;;;;;;6093874;23;19913;-80
2023/02/16 05:40:19;;;;;;;;;;;3.40;36.10;;;;;;6093410;23;20285;-80
2023/02/16 05:42:45;;;;;;;;;;;3.40;35.40;;;;;;6093615;23;19905;-81
2023/02/16 05:45:10;;;;;;;;;;;3.50;33.70;;;;;;6093595;23;19929;-80
2023/02/16 05:47:36;;;;;;;;;;;3.60;29.10;;;;;;6092957;23;19912;-80
2023/02/16 05:50:01;;;;;;;;;;;3.60;27.80;;;;;;6093761;23;19906;-81
2023/02/16 05:52:26;;;;;;;;;;;3.60;25.50;;;;;;6091007;23;19984;-81
2023/02/16 05:54:52;;;;;;;;;;;3.60;22.70;;;;;;6092824;23;19971;-80
2023/02/16 05:57:34;;;;;;;;;;;3.60;20.70;;;;;;6236202;22;19946;-79
2023/02/16 06:00:15;;;;;;;;;;;3.60;19.10;;;;;;6276761;22;19908;-79
2023/02/16 06:02:46;;;;;;;;;;;3.70;18.80;;;;;;6274684;22;19935;-79
2023/02/16 06:05:16;;;;;;;;;;;3.70;15.90;;;;;;6276633;22;20330;-79
2023/02/16 06:07:44;;;;;;;;;;;3.70;15.00;;;;;;6244338;23;19907;-80
2023/02/16 06:10:12;;;;;;;;;;;3.80;14.10;;;;;;6244352;23;19953;-80
2023/02/16 06:12:37;;;;;;;;;;;3.90;9.50;;;;;;6245782;23;19907;-79
2023/02/16 06:15:06;;;;;;;;;;;4.00;5.50;;;;;;6245965;23;20220;-79
2023/02/16 06:17:34;;;;;;;;;;;4.00;1.20;;;;;;6245765;22;19903;-80
2023/02/16 06:20:00;;;;;;;;;;;4.10;1.00;;;;;;6244167;23;19982;-79
2023/02/16 06:22:25;;;;;;;;;;;4.10;1.00;;;;;;6244070;23;19931;-80
2023/02/16 06:24:51;;;;;;;;;;;4.20;1.00;;;;;;6219003;23;20481;-80
2023/02/16 06:27:22;;;;;;;;;;;4.20;1.00;;;;;;6219016;23;19904;-80
2023/02/16 06:29:47;;;;;;;;;;;4.30;1.00;;;;;;6245739;23;20505;-79
2023/02/16 06:32:17;;;;;;;;;;;4.30;1.00;;;;;;6218657;23;19903;-79
2023/02/16 06:34:42;;;;;;;;;;;4.40;1.00;;;;;;6245799;23;19934;-80
2023/02/16 06:37:08;;;;;;;;;;;4.50;1.00;;;;;;6218729;23;20324;-80
2023/02/16 06:39:33;;;;;;;;;;;4.50;1.00;;;;;;6245638;23;19910;-79
2023/02/16 06:41:59;;;;;;;;;;;4.50;1.00;;;;;;6218895;23;19910;-80
2023/02/16 06:44:27;;;;;;;;;;;4.50;1.00;;;;;;6244850;23;20323;-80
2023/02/16 06:46:53;;;;;;;;;;;4.50;1.00;;;;;;6244284;22;19931;-80
2023/02/16 06:49:26;;;;;;;;;;;4.60;1.00;;;;;;6219183;23;19911;-80
2023/02/16 06:51:51;;;;;;;;;;;4.60;1.00;;;;;;6244256;23;19904;-80
2023/02/16 06:54:20;;;;;;;;;;;4.60;1.00;;;;;;6244136;23;19904;-80
2023/02/16 06:56:53;;;;;;;;;;;4.70;1.00;;;;;;6243592;22;19912;-80
2023/02/16 06:59:19;;;;;;;;;;;4.70;1.00;;;;;;6244046;23;19904;-79
2023/02/16 07:01:44;;;;;;;;;;;4.70;1.00;;;;;;6244332;23;19933;-79
2023/02/16 07:04:10;;;;;;;;;;;4.70;1.00;;;;;;6245989;23;19904;-80
2023/02/16 07:06:35;;;;;;;;;;;4.80;1.00;;;;;;6246118;22;19971;-79
2023/02/16 07:09:01;;;;;;;;;;;4.80;1.00;;;;;;6245627;23;19989;-79
2023/02/16 07:11:27;;;;;;;;;;;4.90;1.00;;;;;;6243669;23;19903;-79
2023/02/16 07:13:53;;;;;;;;;;;4.90;1.00;;;;;;6244025;23;19903;-79
2023/02/16 07:16:18;;;;;;;;;;;4.90;1.00;;;;;;6244115;22;20296;-79
2023/02/16 07:18:45;;;;;;;;;;;4.90;1.00;;;;;;6219023;23;20338;-79
2023/02/16 07:21:11;;;;;;;;;;;4.90;1.00;;;;;;6244951;23;20468;-79
2023/02/16 07:23:36;;;;;;;;;;;5.00;1.00;;;;;;6245923;23;19903;-79
2023/02/16 07:26:02;;;;;;;;;;;5.00;1.00;;;;;;6245724;22;20315;-79
2023/02/16 07:28:27;;;;;;;;;;;5.00;1.00;;;;;;6245704;23;19904;-79
2023/02/16 07:30:53;;;;;;;;;;;5.10;1.00;;;;;;6218636;23;20009;-80
2023/02/16 07:33:19;;;;;;;;;;;5.10;1.00;;;;;;6244068;23;19903;-80
2023/02/16 07:35:45;;;;;;;;;;;5.20;1.00;;;;;;6245950;22;20025;-79
2023/02/16 07:38:11;;;;;;;;;;;5.20;1.00;;;;;;6244803;23;19908;-79
2023/02/16 07:40:36;;;;;;;;;;;5.10;1.00;;;;;;6247749;23;20422;-80
2023/02/16 07:43:05;;;;;;;;;;;5.10;1.00;;;;;;6251980;23;21281;-80
2023/02/16 07:45:33;;;;;;;;;;;5.10;1.00;;;;;;6252391;22;20286;-80
2023/02/16 07:48:02;;;;;;;;;;;5.10;1.00;;;;;;6252668;23;19911;-80
2023/02/16 07:50:28;;;;;;;;;;;5.10;1.00;;;;;;6253205;23;19903;-80
2023/02/16 07:52:53;;;;;;;;;;;5.10;1.00;;;;;;6250240;23;19908;-80
2023/02/16 07:55:19;;;;;;;;;;;5.20;1.00;;;;;;6249571;22;19954;-80
2023/02/16 07:57:45;;;;;;;;;;;5.30;1.00;;;;;;6247954;23;19916;-80
2023/02/16 08:00:10;;;;;;;;;;;5.30;1.00;;;;;;6222425;23;19923;-79
2023/02/16 08:02:36;;;;;;;;;;;5.30;1.00;;;;;;6247357;23;19907;-80
2023/02/16 08:05:02;;;;;;;;;;;5.40;1.00;;;;;;6249319;23;19904;-80
2023/02/16 08:07:27;;;;;;;;;;;5.40;1.00;;;;;;6248903;22;19904;-81
2023/02/16 08:09:53;;;;;;;;;;;5.50;1.00;;;;;;6249674;23;19903;-80
2023/02/16 08:12:18;;;;;;;;;;;5.60;1.00;;;;;;6248842;23;19926;-80
2023/02/16 08:14:45;;;;;;;;;;;5.60;1.00;;;;;;6249744;23;19914;-80
2023/02/16 08:17:11;;;;;;;;;;;5.60;1.00;;;;;;6249248;22;20238;-82
2023/02/16 08:19:37;;;;;;;;;;;5.70;1.00;;;;;;6248948;23;19919;-80
2023/02/16 08:22:03;;;;;;;;;;;5.70;1.00;;;;;;6223059;23;20247;-83
2023/02/16 08:24:29;;;;;;;;;;;5.80;1.00;;;;;;6249613;23;19948;-80
2023/02/16 08:26:57;;;;;;;;;;;5.80;1.00;;;;;;6250696;22;19914;-80
2023/02/16 08:29:25;;;;;;;;;;;5.90;1.00;;;;;;6249044;23;19904;-80
2023/02/16 08:31:51;;;;;;;;;;;5.90;1.00;;;;;;6250278;23;19904;-81
2023/02/16 08:34:39;;;;;;;;;;;6.00;1.00;;;;;;6249928;23;20239;-80
2023/02/16 08:37:04;;;;;;;;;;;6.10;1.00;;;;;;6248086;22;19981;-81
2023/02/16 08:39:31;;;;;;;;;;;6.20;1.00;;;;;;6248067;23;19904;-80
2023/02/16 08:42:17;;;;;;;;;;;6.40;1.00;;;;;;6247789;23;19907;-83
2023/02/16 08:44:50;;;;;;;;;;;6.60;1.00;;;;;;6221902;23;20286;-81
2023/02/16 08:47:18;;;;;;;;;;;6.70;99.90;;;;;;6222767;23;20370;-83
2023/02/16 08:49:44;;;;;;;;;;;6.80;99.90;;;;;;6223296;23;19908;-80
2023/02/16 08:52:16;;;;;;;;;;;6.80;99.90;;;;;;6247422;23;19990;-83
2023/02/16 08:55:12;;;;;;;;;;;6.80;99.90;;;;;;6249877;23;20002;-81
2023/02/16 08:57:38;;;;;;;;;;;6.90;99.90;;;;;;6248773;22;19939;-82
2023/02/16 09:02:48;;;;;;;;;;;7.00;99.90;;;;;;6249176;23;19926;-81
2023/02/16 09:05:14;;;;;;;;;;;7.00;99.90;;;;;;6247560;23;20324;-81
2023/02/16 09:07:40;;;;;;;;;;;7.00;99.90;;;;;;6248243;23;19910;-82
2023/02/16 09:10:06;;;;;;;;;;;7.00;99.90;;;;;;6248569;23;19904;-81
2023/02/16 09:12:34;;;;;;;;;;;7.00;99.90;;;;;;6247966;23;19951;-82
2023/02/16 09:15:00;;;;;;;;;;;7.00;99.90;;;;;;6222351;23;19919;-80
2023/02/16 09:17:27;;;;;;;;;;;7.20;99.90;;;;;;6249134;22;19903;-80
2023/02/16 09:19:52;;;;;;;;;;;7.40;99.90;;;;;;6248063;23;19933;-80
2023/02/16 09:22:18;;;;;;;;;;;7.70;99.90;;;;;;6247768;23;19974;-79
2023/02/16 09:24:43;;;;;;;;;;;7.90;38.90;;;;;;6247491;23;19908;-79
2023/02/16 09:27:10;;;;;;;;;;;8.30;28.50;;;;;;6222219;23;19907;-80
2023/02/16 09:29:37;;;;;;;;;;;8.50;1.00;;;;;;6247874;23;20316;-79
2023/02/16 09:32:02;;;;;;;;;;;8.60;99.90;;;;;;6248684;23;19904;-80
2023/02/16 09:34:28;;;;;;;;;;;8.90;99.90;;;;;;6248127;23;20394;-80
2023/02/16 09:36:54;;;;;;;;;;;9.20;1.00;;;;;;6248016;22;19962;-79
2023/02/16 09:39:19;;;;;;;;;;;9.50;1.00;;;;;;6247940;23;19907;-79
2023/02/16 09:41:51;;;;;;;;;;;9.90;99.90;;;;;;6222092;23;19908;-80
2023/02/16 09:44:31;;;;;;;;;;;9.90;99.90;;;;;;6248965;23;19903;-80
2023/02/16 09:46:58;;;;;;;;;;;9.90;99.90;;;;;;6248970;22;19904;-80
2023/02/16 09:49:29;;;;;;;;;;;9.80;99.90;;;;;;6247113;23;19978;-80
2023/02/16 09:51:58;;;;;;;;;;;9.70;1.00;;;;;;6247076;23;19908;-80
2023/02/16 09:54:41;;;;;;;;;;;9.70;99.90;;;;;;6249216;23;19907;-79
2023/02/16 09:57:19;;;;;;;;;;;9.70;1.00;;;;;;6247582;22;19912;-80
2023/02/16 10:00:04;;;;;;;;;;;9.70;1.00;;;;;;6247063;23;19904;-80
2023/02/16 10:02:40;;;;;;;;;;;9.80;1.00;;;;;;6248606;23;20327;-80
2023/02/16 10:05:07;;;;;;;;;;;9.90;1.00;;;;;;6249117;23;19904;-79
2023/02/16 10:16:32;;;;;;;;;;;10.20;1.00;;;;;;6280273;22;20250;-80
2023/02/16 10:34:55;;;;;;;;;;;;;;;;;;;;;
2023/02/16 10:40:33;;;;;;;;;;;;;;;;;;;;;
2023/02/16 10:49:38;;;;;;;;;;;;;;;;;;;;;
2023/02/16 10:55:37;;;;;;;;;;;;;;;;;;;;;
2023/02/16 10:58:32;;;;;;;;;;;9.50;1.00;;;;;;6200574;23;19979;-79
2023/02/16 11:13:32;;;;;;;;;;;9.70;1.00;;;;;;6148241;22;19959;-79
2023/02/16 11:19:45;;;;;;;;;;;10.00;1.00;;;;;;6213384;23;19908;-78
2023/02/16 11:22:31;;;;;;;;;;;10.10;99.90;;;;;;6213213;23;19939;-78
2023/02/16 11:30:31;;;;;;;;;;;11.00;98.10;;;;;;6231605;23;19923;-79
2023/02/16 11:33:23;;;;;;;;;;;11.30;99.90;;;;;;6244286;23;19981;-79
2023/02/16 11:35:57;;;;;;;;;;;11.50;99.90;;;;;;6197620;23;19903;-79
2023/02/16 11:38:57;;;;;;;;;;;11.90;99.90;;;;;;6250339;23;19973;-79
2023/02/16 11:41:36;;;;;;;;;;;12.10;99.90;;;;;;6183352;23;19903;-79
2023/02/16 11:44:46;;;;;;;;;;;;;;;;;;;;;
2023/02/16 11:47:21;;;;;;;;;;;11.90;99.90;;;;;;6216567;23;19963;-79
2023/02/16 11:49:50;;;;;;;;;;;11.90;99.90;;;;;;6223182;23;19910;-79
2023/02/16 11:52:22;;;;;;;;;;;11.80;99.90;;;;;;6250125;23;19949;-79
2023/02/16 11:57:53;;;;;;;;;;;11.80;99.90;;;;;;6125447;22;20000;-84
2023/02/16 12:00:20;;;;;;;;;;;11.80;99.90;;;;;;6099002;23;19956;-84
2023/02/16 12:03:05;;;;;;;;;;;11.70;99.90;;;;;;6074033;23;19909;-85
2023/02/16 12:05:38;;;;;;;;;;;11.70;99.90;;;;;;6121960;23;19909;-84
2023/02/16 12:08:03;;;;;;;;;;;11.90;99.90;;;;;;6096959;23;19908;-83
2023/02/16 12:10:28;;;;;;;;;;;11.90;99.90;;;;;;6095652;23;20319;-84
2023/02/16 12:12:57;;;;;;;;;;;12.00;99.90;;;;;;6095939;23;19915;-83
2023/02/16 12:15:28;;;;;;;;;;;12.10;99.90;;;;;;6096152;23;19966;-83
2023/02/16 12:18:12;;;;;;;;;;;12.20;99.90;;;;;;6097111;23;19909;-85
2023/02/16 12:20:41;;;;;;;;;;;12.20;99.90;;;;;;6097829;23;19912;-85
2023/02/16 12:23:17;;;;;;;;;;;12.10;99.90;;;;;;6095742;23;19905;-86
2023/02/16 12:25:51;;;;;;;;;;;12.00;99.90;;;;;;6095999;23;19912;-86
2023/02/16 12:28:22;;;;;;;;;;;11.90;99.90;;;;;;6096012;23;19905;-86
2023/02/16 12:31:08;;;;;;;;;;;11.90;99.90;;;;;;6095919;23;19962;-86
2023/02/16 12:33:53;;;;;;;;;;;11.80;99.90;;;;;;6095665;23;20355;-87
2023/02/16 12:36:38;;;;;;;;;;;11.80;99.90;;;;;;6112486;23;19916;-84
2023/02/16 12:39:22;;;;;;;;;;;11.70;99.90;;;;;;6096267;23;20279;-87
2023/02/16 12:41:50;;;;;;;;;;;11.60;99.90;;;;;;6095805;23;19905;-87
2023/02/16 12:44:35;;;;;;;;;;;11.60;99.90;;;;;;6096574;23;19905;-86
2023/02/16 12:47:04;;;;;;;;;;;11.50;99.90;;;;;;6095612;23;19912;-84
2023/02/16 12:49:41;;;;;;;;;;;11.50;99.90;;;;;;6096180;23;19905;-85
2023/02/16 12:52:26;;;;;;;;;;;11.50;99.90;;;;;;6095970;23;19909;-83
2023/02/16 12:54:54;;;;;;;;;;;11.50;99.90;;;;;;6096377;23;19933;-83
2023/02/16 12:57:21;;;;;;;;;;;11.40;99.90;;;;;;6096017;23;19919;-85
2023/02/16 12:59:55;;;;;;;;;;;11.40;99.90;;;;;;6096975;23;19904;-83
2023/02/16 13:02:32;;;;;;;;;;;11.40;99.90;;;;;;6095772;23;19912;-83
2023/02/16 13:05:00;;;;;;;;;;;11.50;99.90;;;;;;6097014;23;19905;-87
2023/02/16 13:07:36;;;;;;;;;;;11.50;99.90;;;;;;6096604;23;19912;-85
2023/02/16 13:10:04;;;;;;;;;;;11.60;99.90;;;;;;6120094;23;19913;-84
2023/02/16 13:12:37;;;;;;;;;;;11.70;99.90;;;;;;6095743;23;19912;-85
2023/02/16 13:15:09;;;;;;;;;;;11.80;99.90;;;;;;6096156;23;19909;-84
2023/02/16 13:17:38;;;;;;;;;;;11.90;99.90;;;;;;6121563;23;19940;-84
2023/02/16 13:20:10;;;;;;;;;;;11.90;99.90;;;;;;6095945;23;19905;-83
2023/02/16 13:22:36;;;;;;;;;;;12.00;99.90;;;;;;6095541;23;19905;-84
2023/02/16 13:25:40;;;;;;;;;;;12.20;99.90;;;;;;6096271;23;20395;-83
2023/02/16 13:28:08;;;;;;;;;;;12.40;99.90;;;;;;6128325;23;19905;-86
2023/02/16 13:30:53;;;;;;;;;;;12.60;99.90;;;;;;6152686;23;19971;-86
2023/02/16 13:33:26;;;;;;;;;;;12.70;99.90;;;;;;6107136;23;19905;-84
2023/02/16 13:35:55;;;;;;;;;;;12.90;99.90;;;;;;6095712;23;20172;-84
2023/02/16 13:38:39;;;;;;;;;;;13.10;99.90;;;;;;6096043;23;19909;-83
2023/02/16 13:41:06;;;;;;;;;;;13.30;99.90;;;;;;6096073;23;19905;-83
2023/02/16 13:43:34;;;;;;;;;;;13.70;99.90;;;;;;6095731;23;19905;-83
2023/02/16 13:46:02;;;;;;;;;;;14.10;99.90;;;;;;6095696;23;19909;-83
2023/02/16 13:48:30;;;;;;;;;;;14.60;99.90;;;;;;6095620;23;19984;-82
2023/02/16 13:50:57;;;;;;;;;;;15.50;99.90;;;;;;6095245;23;19916;-82
2023/02/16 13:53:23;;;;;;;;;;;16.00;99.90;;;;;;6121935;23;19909;-82
2023/02/16 13:55:51;;;;;;;;;;;16.80;99.90;;;;;;6094693;23;19933;-84
2023/02/16 13:58:17;;;;;;;;;;;17.20;99.90;;;;;;6095724;23;19923;-82
2023/02/16 14:00:46;;;;;;;;;;;17.40;99.90;;;;;;6094589;23;19913;-83
2023/02/16 14:03:12;;;;;;;;;;;17.60;99.90;;;;;;6121361;23;20001;-83
2023/02/16 14:06:00;;;;;;;;;;;17.50;99.90;;;;;;6096066;23;19905;-85
2023/02/16 14:08:27;;;;;;;;;;;17.50;99.90;;;;;;6100198;23;19912;-85
2023/02/16 14:10:52;;;;;;;;;;;17.40;99.90;;;;;;6095553;23;20114;-84
2023/02/16 14:13:27;;;;;;;;;;;17.40;99.90;;;;;;6095729;23;19905;-84
2023/02/16 14:15:54;;;;;;;;;;;17.30;99.90;;;;;;6095533;23;19905;-84
2023/02/16 14:18:31;;;;;;;;;;;17.50;99.90;;;;;;6095679;23;19937;-84
2023/02/16 14:21:15;;;;;;;;;;;17.70;99.90;;;;;;6092943;23;19913;-83
2023/02/16 14:23:41;;;;;;;;;;;17.80;99.90;;;;;;6096215;23;20290;-84
2023/02/16 14:26:07;;;;;;;;;;;18.00;99.90;;;;;;6095402;23;19939;-85
2023/02/16 14:28:34;;;;;;;;;;;18.40;99.90;;;;;;6095767;23;19909;-85
2023/02/16 14:31:01;;;;;;;;;;;18.50;99.90;;;;;;6095129;23;19909;-84
2023/02/16 14:33:39;;;;;;;;;;;18.40;99.90;;;;;;6095484;23;19905;-85
2023/02/16 14:36:07;;;;;;;;;;;17.80;99.90;;;;;;6095597;23;20304;-85
2023/02/16 14:38:34;;;;;;;;;;;17.20;99.90;;;;;;6095618;23;19911;-83
2023/02/16 14:44:31;;;;;;;;;;;17.10;99.90;;;;;;6119611;23;19924;-84
2023/02/16 14:47:15;;;;;;;;;;;16.80;99.90;;;;;;6110191;23;19915;-85
2023/02/16 14:49:40;;;;;;;;;;;16.40;99.90;;;;;;6095392;23;19974;-84
2023/02/16 14:52:09;;;;;;;;;;;16.40;99.90;;;;;;6095432;23;19909;-84
2023/02/16 14:54:36;;;;;;;;;;;16.20;99.90;;;;;;6097658;23;19912;-85
2023/02/16 14:57:03;;;;;;;;;;;16.00;99.90;;;;;;6095957;23;19913;-84
2023/02/16 14:59:33;;;;;;;;;;;15.90;99.90;;;;;;6101982;23;19905;-84
2023/02/16 15:01:59;;;;;;;;;;;15.80;99.90;;;;;;6097412;23;19992;-85
2023/02/16 15:04:32;;;;;;;;;;;15.80;99.90;;;;;;6125844;23;19912;-84
2023/02/16 15:07:02;;;;;;;;;;;15.60;99.90;;;;;;6096661;23;19909;-87
2023/02/16 15:09:32;;;;;;;;;;;15.60;99.90;;;;;;6095570;23;19912;-85
2023/02/16 15:15:33;;;;;;;;;;;;;;;;;;;;;
2023/02/16 15:18:07;;;;;;;;;;;15.30;99.90;;;;;;6121000;23;19976;-85
2023/02/16 15:21:08;;;;;;;;;;;;;;;;;;;;;
2023/02/16 15:23:34;;;;;;;;;;;15.10;99.90;;;;;;6132207;23;19981;-85
2023/02/16 15:29:24;;;;;;;;;;;15.00;99.90;;;;;;6088067;23;19909;-86
2023/02/16 15:31:49;;;;;;;;;;;15.10;99.90;;;;;;6094549;23;19909;-85
2023/02/16 15:34:33;;;;;;;;;;;15.10;99.90;;;;;;6095091;23;19912;-85
2023/02/16 15:37:01;;;;;;;;;;;15.10;99.90;;;;;;6095023;23;19905;-85
2023/02/16 15:39:49;;;;;;;;;;;15.10;99.90;;;;;;6120880;23;19913;-85
2023/02/16 15:42:22;;;;;;;;;;;15.00;99.90;;;;;;6180929;23;19904;-86
2023/02/16 15:44:48;;;;;;;;;;;15.00;99.90;;;;;;6123247;23;20248;-86
2023/02/16 15:47:16;;;;;;;;;;;14.90;99.90;;;;;;6094596;23;19905;-85
2023/02/16 15:49:45;;;;;;;;;;;14.90;99.90;;;;;;6095165;23;19947;-86
2023/02/16 15:55:50;;;;;;;;;;;14.80;99.90;;;;;;6060059;23;19906;-88
2023/02/16 15:58:15;;;;;;;;;;;14.80;99.90;;;;;;6060177;23;19918;-86
2023/02/16 16:00:42;;;;;;;;;;;14.80;99.90;;;;;;6080517;23;20008;-86
2023/02/16 16:03:16;;;;;;;;;;;14.70;99.90;;;;;;6094801;23;19912;-84
2023/02/16 16:08:55;;;;;;;;;;;14.70;99.90;;;;;;6107433;23;19909;-86
2023/02/16 16:11:24;;;;;;;;;;;14.60;99.90;;;;;;6119879;23;19958;-86
2023/02/16 16:13:50;;;;;;;;;;;14.50;99.90;;;;;;6094618;23;20244;-86
2023/02/16 16:16:44;;;;;;;;;;;14.50;99.90;;;;;;6094081;23;19912;-85
2023/02/16 16:19:16;;;;;;;;;;;14.40;99.90;;;;;;6094727;23;19943;-85
2023/02/16 16:21:48;;;;;;;;;;;14.40;99.90;;;;;;6093725;23;19911;-86
2023/02/16 16:24:25;;;;;;;;;;;14.30;99.90;;;;;;6120979;23;19927;-86
2023/02/16 16:26:55;;;;;;;;;;;14.30;99.90;;;;;;6096701;23;19905;-86
2023/02/16 16:29:31;;;;;;;;;;;14.30;99.90;;;;;;6096633;23;19911;-85
2023/02/16 16:31:57;;;;;;;;;;;14.30;99.90;;;;;;6096549;23;19913;-85
2023/02/16 16:34:30;;;;;;;;;;;14.10;99.90;;;;;;6096578;23;20329;-86
2023/02/16 16:36:57;;;;;;;;;;;14.00;99.90;;;;;;6096093;23;19905;-85
2023/02/16 16:39:25;;;;;;;;;;;14.00;99.90;;;;;;6096247;23;19958;-84
2023/02/16 16:41:54;;;;;;;;;;;13.80;99.90;;;;;;6106446;23;20236;-86
2023/02/16 16:44:39;;;;;;;;;;;13.70;99.90;;;;;;6111976;23;19911;-86
2023/02/16 16:47:17;;;;;;;;;;;13.70;99.90;;;;;;6097145;23;19987;-86
2023/02/16 16:49:47;;;;;;;;;;;13.70;99.90;;;;;;6102177;23;19915;-86
2023/02/16 16:52:12;;;;;;;;;;;13.70;99.90;;;;;;6106951;23;20489;-86
2023/02/16 16:54:39;;;;;;;;;;;13.70;99.90;;;;;;6106878;23;19905;-86
2023/02/16 16:57:16;;;;;;;;;;;13.70;99.90;;;;;;6098305;23;19913;-87
2023/02/16 16:59:41;;;;;;;;;;;13.70;99.90;;;;;;6101574;23;20245;-86
2023/02/16 17:02:09;;;;;;;;;;;13.70;99.90;;;;;;6095538;23;19905;-85
2023/02/16 17:04:34;;;;;;;;;;;13.60;99.90;;;;;;6096117;23;19905;-85